Time;durP1;ratioP1;P1;durP2;ratioP2;P2;SDS_P1;SDS_P2;PMS_P1;PMS_P2;Temp;Humidity;BMP_temperature;BMP_pressure;BME280_temperature;BME280_humidity;BME280_pressure;Samples;Min_cycle;Max_cycle;Signal;HPM_P1;HPM_P2
2021/09/16 00:02:22;;;;;;;13.98;13.07;;;;;;;;;;5126571;27;25090;-59
2021/09/16 00:04:47;;;;;;;14.50;13.50;;;;;;;;;;5124957;27;24818;-59
2021/09/16 00:07:12;;;;;;;16.55;15.35;;;;;;;;;;5125548;27;25029;-60
2021/09/16 00:09:37;;;;;;;14.30;13.30;;;;;;;;;;5127012;27;24938;-59
2021/09/16 00:12:03;;;;;;;13.70;12.70;;;;;;;;;;5123383;27;24401;-58
2021/09/16 00:14:28;;;;;;;17.57;16.33;;;;;;;;;;5109046;27;24777;-59
2021/09/16 00:16:53;;;;;;;15.40;14.30;;;;;;;;;;5124001;27;24413;-59
2021/09/16 00:19:18;;;;;;;14.88;13.82;;;;;;;;;;5110364;27;24418;-59
2021/09/16 00:21:43;;;;;;;13.73;12.73;;;;;;;;;;5121275;27;24441;-59
2021/09/16 00:24:08;;;;;;;12.40;11.60;;;;;;;;;;5126500;27;24448;-60
2021/09/16 00:26:33;;;;;;;13.27;12.37;;;;;;;;;;5126135;27;24421;-59
2021/09/16 00:28:58;;;;;;;14.00;13.10;;;;;;;;;;5121831;27;24434;-59
2021/09/16 00:31:24;;;;;;;13.07;12.18;;;;;;;;;;5126887;27;24421;-59
2021/09/16 00:33:49;;;;;;;12.60;11.77;;;;;;;;;;5123259;27;24434;-59
2021/09/16 00:36:14;;;;;;;13.27;12.33;;;;;;;;;;5110058;27;24466;-59
2021/09/16 00:38:39;;;;;;;13.13;12.23;;;;;;;;;;5125939;27;24839;-59
2021/09/16 00:41:07;;;;;;;12.20;11.30;;;;;;;;;;5126656;28;24451;-59
2021/09/16 00:43:32;;;;;;;12.88;12.02;;;;;;;;;;5124122;28;25209;-59
2021/09/16 00:46:00;;;;;;;12.10;11.20;;;;;;;;;;5126262;27;24470;-59
2021/09/16 00:48:25;;;;;;;12.80;11.80;;;;;;;;;;5123866;27;24409;-60
2021/09/16 00:50:50;;;;;;;14.50;13.50;;;;;;;;;;5120159;27;24413;-58
2021/09/16 00:53:16;;;;;;;12.50;11.70;;;;;;;;;;5113470;28;24448;-58
2021/09/16 00:55:42;;;;;;;13.85;12.90;;;;;;;;;;5122727;27;24896;-59
2021/09/16 00:58:08;;;;;;;13.77;12.87;;;;;;;;;;5124695;28;24552;-58
2021/09/16 01:00:35;;;;;;;12.73;11.82;;;;;;;;;;5126303;28;24793;-58
2021/09/16 01:03:00;;;;;;;11.70;10.80;;;;;;;;;;5109974;28;24432;-58
2021/09/16 01:05:26;;;;;;;13.20;12.30;;;;;;;;;;5122544;28;24405;-58
2021/09/16 01:07:51;;;;;;;14.77;13.68;;;;;;;;;;5116987;27;24422;-59
2021/09/16 01:10:16;;;;;;;15.43;14.33;;;;;;;;;;5121443;27;24436;-58
2021/09/16 01:12:43;;;;;;;12.13;11.33;;;;;;;;;;5118717;27;24953;-59
2021/09/16 01:15:09;;;;;;;12.85;11.95;;;;;;;;;;5125485;27;25023;-58
2021/09/16 01:17:34;;;;;;;11.75;10.95;;;;;;;;;;5115810;27;24442;-59
2021/09/16 01:20:00;;;;;;;11.43;10.63;;;;;;;;;;5129848;27;24616;-59
2021/09/16 01:22:25;;;;;;;13.30;12.40;;;;;;;;;;5128272;27;24997;-58
2021/09/16 01:24:50;;;;;;;11.63;10.83;;;;;;;;;;5130168;27;24414;-58
2021/09/16 01:27:16;;;;;;;11.07;10.37;;;;;;;;;;5128781;27;24659;-58
2021/09/16 01:29:42;;;;;;;12.27;11.37;;;;;;;;;;5129554;27;25005;-59
2021/09/16 01:32:07;;;;;;;12.45;11.55;;;;;;;;;;5128985;27;24800;-57
2021/09/16 01:34:32;;;;;;;13.50;12.60;;;;;;;;;;5128546;27;25067;-59
2021/09/16 01:36:57;;;;;;;13.67;12.67;;;;;;;;;;5129590;27;24455;-59
2021/09/16 01:39:23;;;;;;;13.95;12.98;;;;;;;;;;5123450;27;25039;-58
2021/09/16 01:41:48;;;;;;;12.38;11.57;;;;;;;;;;5127269;27;24440;-58
2021/09/16 01:44:14;;;;;;;11.23;10.43;;;;;;;;;;5116420;27;24418;-59
2021/09/16 01:46:39;;;;;;;11.50;10.70;;;;;;;;;;5122904;27;24460;-58
2021/09/16 01:49:05;;;;;;;12.05;11.25;;;;;;;;;;5128669;27;24461;-59
2021/09/16 01:51:30;;;;;;;11.60;10.80;;;;;;;;;;5111584;27;24421;-59
2021/09/16 01:53:56;;;;;;;11.82;11.02;;;;;;;;;;5128063;27;24462;-58
2021/09/16 01:56:21;;;;;;;11.50;10.70;;;;;;;;;;5128828;27;24468;-60
2021/09/16 01:58:46;;;;;;;10.70;10.00;;;;;;;;;;5126450;27;24528;-59
2021/09/16 02:01:11;;;;;;;12.10;11.30;;;;;;;;;;5128808;27;25044;-59
2021/09/16 02:03:36;;;;;;;15.10;14.00;;;;;;;;;;5125733;27;24535;-59
2021/09/16 02:06:02;;;;;;;13.30;12.40;;;;;;;;;;5119750;27;24437;-60
2021/09/16 02:08:27;;;;;;;11.27;10.47;;;;;;;;;;5129702;27;24757;-59
2021/09/16 02:10:52;;;;;;;10.50;9.70;;;;;;;;;;5126329;27;24413;-59
2021/09/16 02:13:17;;;;;;;11.20;10.40;;;;;;;;;;5129296;27;24401;-59
2021/09/16 02:15:42;;;;;;;10.70;10.00;;;;;;;;;;5123444;27;24524;-58
2021/09/16 02:18:08;;;;;;;10.18;9.48;;;;;;;;;;5128882;27;24419;-59
2021/09/16 02:20:33;;;;;;;10.23;9.52;;;;;;;;;;5124430;27;24493;-59
2021/09/16 02:22:58;;;;;;;9.33;8.73;;;;;;;;;;5122766;27;24959;-59
2021/09/16 02:25:23;;;;;;;9.95;9.25;;;;;;;;;;5127948;27;24436;-59
2021/09/16 02:27:48;;;;;;;9.67;9.07;;;;;;;;;;5127990;27;24539;-59
2021/09/16 02:30:13;;;;;;;9.60;9.00;;;;;;;;;;5128384;27;24689;-58
2021/09/16 02:32:39;;;;;;;8.93;8.33;;;;;;;;;;5128608;27;24444;-58
2021/09/16 02:35:04;;;;;;;9.30;8.70;;;;;;;;;;5124481;27;24417;-58
2021/09/16 02:37:30;;;;;;;9.50;8.90;;;;;;;;;;5128237;27;24971;-59
2021/09/16 02:39:55;;;;;;;10.60;9.90;;;;;;;;;;5128315;27;24445;-59
2021/09/16 02:42:20;;;;;;;9.55;8.95;;;;;;;;;;5126558;27;24994;-60
2021/09/16 02:44:45;;;;;;;10.20;9.50;;;;;;;;;;5121849;27;24560;-58
2021/09/16 02:47:10;;;;;;;10.33;9.63;;;;;;;;;;5125625;27;24504;-59
2021/09/16 02:49:35;;;;;;;10.70;10.00;;;;;;;;;;5128195;27;24489;-59
2021/09/16 02:52:00;;;;;;;9.80;9.10;;;;;;;;;;5126358;27;24500;-59
2021/09/16 02:54:26;;;;;;;9.20;8.60;;;;;;;;;;5128802;27;24972;-58
2021/09/16 02:56:51;;;;;;;10.80;10.10;;;;;;;;;;5123993;27;24490;-58
2021/09/16 02:59:16;;;;;;;11.00;10.20;;;;;;;;;;5125023;27;24412;-58
2021/09/16 03:01:41;;;;;;;13.13;12.23;;;;;;;;;;5126997;27;24460;-59
2021/09/16 03:04:06;;;;;;;11.35;10.40;;;;;;;;;;5127871;27;24493;-58
2021/09/16 03:06:32;;;;;;;8.03;7.33;;;;;;;;;;5128149;27;24431;-58
2021/09/16 03:08:57;;;;;;;8.67;8.07;;;;;;;;;;5127346;27;24436;-58
2021/09/16 03:11:22;;;;;;;8.20;7.50;;;;;;;;;;5128388;27;24413;-58
2021/09/16 03:13:47;;;;;;;6.53;6.13;;;;;;;;;;5123252;27;24614;-58
2021/09/16 03:16:12;;;;;;;6.70;6.20;;;;;;;;;;5127960;27;24405;-59
2021/09/16 03:18:37;;;;;;;6.60;6.20;;;;;;;;;;5123511;27;24462;-59
2021/09/16 03:21:02;;;;;;;6.03;5.53;;;;;;;;;;5125437;27;24433;-59
2021/09/16 03:23:28;;;;;;;5.80;5.30;;;;;;;;;;5127032;27;24416;-59
2021/09/16 03:25:53;;;;;;;7.13;6.53;;;;;;;;;;5126490;27;24416;-59
2021/09/16 03:28:18;;;;;;;5.75;5.35;;;;;;;;;;5127318;27;24418;-59
2021/09/16 03:30:43;;;;;;;4.50;4.20;;;;;;;;;;5124773;27;25239;-59
2021/09/16 03:33:08;;;;;;;5.95;5.50;;;;;;;;;;5127584;27;24439;-59
2021/09/16 03:35:33;;;;;;;5.43;5.03;;;;;;;;;;5116325;27;24449;-60
2021/09/16 03:37:58;;;;;;;5.30;5.00;;;;;;;;;;5113311;27;24406;-60
2021/09/16 03:40:24;;;;;;;4.70;4.40;;;;;;;;;;5126107;27;24535;-60
2021/09/16 03:42:52;;;;;;;4.80;4.47;;;;;;;;;;5127715;27;24442;-60
2021/09/16 03:45:17;;;;;;;6.43;6.00;;;;;;;;;;5124773;27;24413;-60
2021/09/16 03:47:43;;;;;;;5.57;5.10;;;;;;;;;;5127566;27;25062;-61
2021/09/16 03:50:08;;;;;;;5.40;5.00;;;;;;;;;;5119959;27;24463;-59
2021/09/16 03:52:33;;;;;;;4.90;4.50;;;;;;;;;;5118809;27;24513;-59
2021/09/16 03:54:59;;;;;;;4.83;4.50;;;;;;;;;;5127420;27;24425;-59
2021/09/16 03:57:24;;;;;;;4.70;4.40;;;;;;;;;;5125778;27;24966;-59
2021/09/16 03:59:49;;;;;;;4.80;4.50;;;;;;;;;;5126966;27;24421;-58
2021/09/16 04:02:14;;;;;;;4.30;4.00;;;;;;;;;;5119910;27;24871;-59
2021/09/16 04:04:39;;;;;;;4.80;4.50;;;;;;;;;;5125521;27;24420;-59
2021/09/16 04:07:04;;;;;;;4.00;3.80;;;;;;;;;;5126140;27;24432;-60
2021/09/16 04:09:29;;;;;;;4.35;4.05;;;;;;;;;;5118399;27;24765;-60
2021/09/16 04:11:55;;;;;;;4.35;4.05;;;;;;;;;;5124482;27;24474;-60
2021/09/16 04:14:20;;;;;;;4.55;4.25;;;;;;;;;;5124699;27;24493;-59
2021/09/16 04:16:45;;;;;;;4.10;3.80;;;;;;;;;;5117149;27;24851;-59
2021/09/16 04:19:10;;;;;;;4.80;4.50;;;;;;;;;;5122928;27;24443;-59
2021/09/16 04:21:36;;;;;;;4.65;4.35;;;;;;;;;;5119699;27;24521;-59
2021/09/16 04:24:01;;;;;;;4.60;4.30;;;;;;;;;;5111938;27;24936;-59
2021/09/16 04:26:26;;;;;;;4.65;4.32;;;;;;;;;;5123190;27;24493;-59
2021/09/16 04:28:51;;;;;;;4.67;4.30;;;;;;;;;;5117537;27;24437;-60
2021/09/16 04:31:16;;;;;;;4.50;4.20;;;;;;;;;;5122459;27;25002;-59
2021/09/16 04:33:41;;;;;;;4.17;3.97;;;;;;;;;;5118692;27;24432;-59
2021/09/16 04:36:07;;;;;;;4.80;4.50;;;;;;;;;;5109944;28;24924;-59
2021/09/16 04:38:32;;;;;;;4.20;3.90;;;;;;;;;;5109978;27;24405;-59
2021/09/16 04:40:57;;;;;;;4.40;4.10;;;;;;;;;;5102939;28;24595;-60
2021/09/16 04:43:22;;;;;;;3.97;3.70;;;;;;;;;;5112237;28;24436;-60
2021/09/16 04:45:47;;;;;;;4.90;4.60;;;;;;;;;;5109892;28;24420;-60
2021/09/16 04:48:12;;;;;;;5.50;5.20;;;;;;;;;;5113843;28;24977;-60
2021/09/16 04:50:38;;;;;;;5.30;4.93;;;;;;;;;;5115205;28;24417;-60
2021/09/16 04:53:03;;;;;;;4.70;4.40;;;;;;;;;;5115265;28;24410;-60
2021/09/16 04:55:28;;;;;;;4.77;4.47;;;;;;;;;;5117113;28;24423;-60
2021/09/16 04:57:53;;;;;;;4.20;3.90;;;;;;;;;;5117470;28;25059;-61
2021/09/16 05:00:19;;;;;;;4.07;3.77;;;;;;;;;;5114175;28;24466;-60
2021/09/16 05:02:44;;;;;;;4.50;4.20;;;;;;;;;;5114092;28;24465;-61
2021/09/16 05:05:09;;;;;;;4.72;4.43;;;;;;;;;;5108216;28;24867;-61
2021/09/16 05:07:34;;;;;;;5.53;5.13;;;;;;;;;;5114527;28;24461;-60
2021/09/16 05:09:59;;;;;;;4.95;4.65;;;;;;;;;;5113395;28;24699;-61
2021/09/16 05:12:25;;;;;;;5.00;4.70;;;;;;;;;;5118875;28;24508;-60
2021/09/16 05:14:50;;;;;;;5.10;4.70;;;;;;;;;;5118805;28;24411;-60
2021/09/16 05:17:15;;;;;;;5.38;4.97;;;;;;;;;;5107667;28;24432;-61
2021/09/16 05:19:40;;;;;;;6.07;5.68;;;;;;;;;;5121118;28;24578;-60
2021/09/16 05:22:05;;;;;;;7.90;7.30;;;;;;;;;;5124638;28;24940;-61
2021/09/16 05:24:30;;;;;;;6.37;5.97;;;;;;;;;;5123020;28;24409;-60
2021/09/16 05:26:56;;;;;;;5.88;5.40;;;;;;;;;;5114042;28;24512;-61
2021/09/16 05:29:21;;;;;;;7.40;6.90;;;;;;;;;;5108887;28;24416;-61
2021/09/16 05:31:46;;;;;;;6.57;6.18;;;;;;;;;;5125436;28;24995;-61
2021/09/16 05:34:11;;;;;;;5.30;4.90;;;;;;;;;;5126371;28;24393;-61
2021/09/16 05:36:36;;;;;;;6.00;5.60;;;;;;;;;;5125620;28;24496;-61
2021/09/16 05:39:02;;;;;;;5.60;5.20;;;;;;;;;;5125831;28;24421;-61
2021/09/16 05:41:29;;;;;;;6.15;5.72;;;;;;;;;;5121418;28;24429;-61
2021/09/16 05:43:55;;;;;;;8.45;7.85;;;;;;;;;;5124852;28;24921;-61
2021/09/16 05:46:20;;;;;;;7.07;6.57;;;;;;;;;;5125934;28;24949;-61
2021/09/16 05:48:45;;;;;;;6.38;5.90;;;;;;;;;;5125512;28;24804;-61
2021/09/16 05:51:10;;;;;;;6.90;6.40;;;;;;;;;;5126495;28;24472;-61
2021/09/16 05:53:37;;;;;;;12.98;11.98;;;;;;;;;;5125148;28;24457;-61
2021/09/16 05:56:02;;;;;;;9.75;8.95;;;;;;;;;;5117308;27;24416;-61
2021/09/16 05:58:27;;;;;;;10.40;9.60;;;;;;;;;;5111198;27;24405;-62
2021/09/16 06:00:52;;;;;;;12.65;11.65;;;;;;;;;;5109436;27;24429;-61
2021/09/16 06:03:17;;;;;;;11.23;10.43;;;;;;;;;;5123361;27;24416;-61
2021/09/16 06:05:42;;;;;;;14.95;13.75;;;;;;;;;;5122629;27;24492;-61
2021/09/16 06:08:08;;;;;;;13.90;12.80;;;;;;;;;;5110744;27;24955;-61
2021/09/16 06:10:33;;;;;;;15.32;14.02;;;;;;;;;;5113684;27;24420;-61
2021/09/16 06:12:58;;;;;;;23.17;20.97;;;;;;;;;;5124585;27;24444;-61
2021/09/16 06:15:23;;;;;;;18.50;16.90;;;;;;;;;;5114220;27;25087;-61
2021/09/16 06:17:48;;;;;;;19.07;17.57;;;;;;;;;;5113181;27;24441;-61
2021/09/16 06:20:14;;;;;;;16.25;14.95;;;;;;;;;;5121044;27;24445;-62
2021/09/16 06:22:39;;;;;;;23.40;21.30;;;;;;;;;;5116123;27;24413;-61
2021/09/16 06:25:05;;;;;;;22.40;20.50;;;;;;;;;;5122424;27;24420;-61
2021/09/16 06:27:30;;;;;;;25.00;22.80;;;;;;;;;;5123295;27;24458;-61
2021/09/16 06:29:55;;;;;;;23.80;21.80;;;;;;;;;;5116165;27;24409;-61
2021/09/16 06:32:20;;;;;;;24.83;22.73;;;;;;;;;;5126309;27;25188;-62
2021/09/16 06:34:46;;;;;;;27.53;25.13;;;;;;;;;;5125546;27;24416;-62
2021/09/16 06:37:11;;;;;;;29.40;26.60;;;;;;;;;;5124901;27;25146;-61
2021/09/16 06:39:36;;;;;;;27.60;25.13;;;;;;;;;;5122896;27;24792;-61
2021/09/16 06:42:01;;;;;;;26.23;23.80;;;;;;;;;;5124431;27;24441;-61
2021/09/16 06:44:26;;;;;;;22.70;20.70;;;;;;;;;;5123608;27;24412;-61
2021/09/16 06:46:51;;;;;;;26.83;24.43;;;;;;;;;;5124979;27;24776;-61
2021/09/16 06:49:17;;;;;;;23.42;21.38;;;;;;;;;;5128252;27;24402;-62
2021/09/16 06:51:42;;;;;;;27.75;25.25;;;;;;;;;;5126517;27;24417;-61
2021/09/16 06:54:07;;;;;;;20.35;18.55;;;;;;;;;;5128683;27;24499;-61
2021/09/16 06:56:32;;;;;;;25.60;23.30;;;;;;;;;;5121653;27;24425;-61
2021/09/16 06:58:58;;;;;;;24.10;22.00;;;;;;;;;;5116667;27;25611;-61
2021/09/16 07:01:23;;;;;;;17.42;16.00;;;;;;;;;;5128661;27;24421;-61
2021/09/16 07:03:48;;;;;;;20.25;18.55;;;;;;;;;;5128483;27;24456;-62
2021/09/16 07:06:13;;;;;;;19.00;17.40;;;;;;;;;;5128048;27;24652;-62
2021/09/16 07:08:38;;;;;;;23.83;21.83;;;;;;;;;;5128074;27;24413;-61
2021/09/16 07:11:03;;;;;;;24.65;22.55;;;;;;;;;;5128782;27;24873;-61
2021/09/16 07:13:29;;;;;;;20.83;19.13;;;;;;;;;;5128286;27;25207;-61
2021/09/16 07:15:54;;;;;;;25.23;22.93;;;;;;;;;;5128560;27;24393;-61
2021/09/16 07:18:19;;;;;;;23.10;21.10;;;;;;;;;;5127922;27;24540;-61
2021/09/16 07:20:44;;;;;;;21.60;19.70;;;;;;;;;;5128214;27;24878;-61
2021/09/16 07:23:10;;;;;;;24.92;22.77;;;;;;;;;;5128144;27;24405;-62
2021/09/16 07:25:35;;;;;;;25.20;23.00;;;;;;;;;;5128209;27;24405;-61
2021/09/16 07:28:00;;;;;;;21.07;19.27;;;;;;;;;;5127864;27;24395;-61
2021/09/16 07:30:25;;;;;;;26.27;23.90;;;;;;;;;;5128206;27;24992;-62
2021/09/16 07:32:51;;;;;;;26.48;23.98;;;;;;;;;;5127659;27;24413;-61
2021/09/16 07:35:16;;;;;;;26.48;24.08;;;;;;;;;;5127889;27;24425;-61
2021/09/16 07:37:41;;;;;;;27.13;24.73;;;;;;;;;;5128007;27;25011;-61
2021/09/16 07:40:06;;;;;;;28.80;26.10;;;;;;;;;;5123205;27;24452;-62
2021/09/16 07:42:32;;;;;;;27.83;25.23;;;;;;;;;;5127757;27;24441;-62
2021/09/16 07:44:57;;;;;;;23.60;21.50;;;;;;;;;;5127568;27;24420;-62
2021/09/16 07:47:22;;;;;;;27.60;25.10;;;;;;;;;;5127750;27;24404;-62
2021/09/16 07:49:47;;;;;;;21.45;19.65;;;;;;;;;;5127355;27;24466;-62
2021/09/16 07:52:13;;;;;;;22.00;20.10;;;;;;;;;;5127746;27;24450;-62
2021/09/16 07:54:38;;;;;;;18.40;16.90;;;;;;;;;;5128004;27;24393;-62
2021/09/16 07:57:04;;;;;;;20.67;18.98;;;;;;;;;;5127175;27;24436;-62
2021/09/16 07:59:29;;;;;;;20.17;18.43;;;;;;;;;;5108486;27;24819;-61
2021/09/16 08:01:54;;;;;;;18.30;16.80;;;;;;;;;;5127074;27;24787;-62
2021/09/16 08:04:20;;;;;;;25.77;23.53;;;;;;;;;;5127524;27;24416;-62
2021/09/16 08:06:45;;;;;;;19.00;17.40;;;;;;;;;;5127252;27;24744;-62
2021/09/16 08:09:10;;;;;;;25.27;22.92;;;;;;;;;;5127158;27;24992;-62
2021/09/16 08:11:38;;;;;;;26.30;23.90;;;;;;;;;;5126803;27;24454;-62
2021/09/16 08:14:03;;;;;;;22.10;20.10;;;;;;;;;;5127470;27;24501;-62
2021/09/16 08:16:30;;;;;;;20.90;18.70;;;;;;;;;;5126957;27;24545;-61
2021/09/16 08:18:55;;;;;;;15.93;14.52;;;;;;;;;;5126514;27;24497;-62
2021/09/16 08:21:22;;;;;;;14.50;13.30;;;;;;;;;;5126808;27;24933;-62
2021/09/16 08:23:47;;;;;;;12.55;11.55;;;;;;;;;;5126916;27;24782;-62
2021/09/16 08:26:12;;;;;;;14.00;12.80;;;;;;;;;;5126851;27;24799;-62
2021/09/16 08:28:37;;;;;;;12.07;11.00;;;;;;;;;;5126839;27;24466;-62
2021/09/16 08:31:03;;;;;;;11.63;10.73;;;;;;;;;;5126827;27;24551;-62
2021/09/16 08:33:28;;;;;;;12.10;11.10;;;;;;;;;;5126228;27;24858;-62
2021/09/16 08:35:53;;;;;;;11.80;10.70;;;;;;;;;;5126917;27;24489;-62
2021/09/16 08:38:18;;;;;;;10.30;9.40;;;;;;;;;;5114975;27;24413;-62
2021/09/16 08:40:44;;;;;;;10.60;9.70;;;;;;;;;;5106006;28;24416;-61
2021/09/16 08:43:09;;;;;;;10.40;9.50;;;;;;;;;;5113746;28;24439;-62
2021/09/16 08:45:34;;;;;;;10.50;9.60;;;;;;;;;;5126903;28;24428;-61
2021/09/16 08:47:59;;;;;;;9.57;8.77;;;;;;;;;;5126355;28;24382;-61
2021/09/16 08:50:25;;;;;;;7.50;6.90;;;;;;;;;;5127242;28;24928;-61
2021/09/16 08:52:51;;;;;;;9.15;8.45;;;;;;;;;;5126173;28;24478;-61
2021/09/16 08:55:17;;;;;;;10.37;9.57;;;;;;;;;;5125305;28;24451;-61
2021/09/16 08:57:44;;;;;;;8.63;7.82;;;;;;;;;;5126501;28;24781;-61
2021/09/16 09:00:11;;;;;;;7.80;7.20;;;;;;;;;;5126325;28;24823;-62
2021/09/16 09:02:37;;;;;;;9.45;8.75;;;;;;;;;;5126321;28;24397;-61
2021/09/16 09:05:03;;;;;;;8.25;7.55;;;;;;;;;;5126233;28;24420;-61
2021/09/16 09:07:40;;;;;;;6.55;6.05;;;;;;;;;;5126680;28;24393;-61
2021/09/16 09:10:06;;;;;;;5.57;5.18;;;;;;;;;;5126100;28;25073;-61
2021/09/16 09:12:36;;;;;;;6.20;5.70;;;;;;;;;;5126145;28;24397;-61
2021/09/16 09:15:03;;;;;;;7.05;6.50;;;;;;;;;;5126286;28;24546;-61
2021/09/16 09:17:30;;;;;;;5.57;5.18;;;;;;;;;;5126703;28;24772;-61
2021/09/16 09:19:58;;;;;;;6.60;6.00;;;;;;;;;;5126412;28;24450;-60
2021/09/16 09:22:35;;;;;;;6.10;5.70;;;;;;;;;;5126204;28;24525;-60
2021/09/16 09:25:03;;;;;;;6.40;5.90;;;;;;;;;;5125994;28;24413;-60
2021/09/16 09:27:29;;;;;;;6.30;5.80;;;;;;;;;;5126600;28;24490;-60
2021/09/16 09:30:13;;;;;;;5.57;5.18;;;;;;;;;;5127876;27;24939;-60
2021/09/16 09:32:58;;;;;;;6.95;6.25;;;;;;;;;;5129538;27;24444;-60
2021/09/16 09:35:26;;;;;;;5.53;5.13;;;;;;;;;;5129976;27;24756;-60
2021/09/16 09:37:51;;;;;;;4.90;4.50;;;;;;;;;;5129377;27;24437;-60
2021/09/16 09:40:24;;;;;;;5.80;5.17;;;;;;;;;;5130275;27;24465;-60
2021/09/16 09:42:49;;;;;;;4.10;3.80;;;;;;;;;;5129239;27;24397;-60
2021/09/16 09:45:14;;;;;;;5.30;4.90;;;;;;;;;;5129670;27;24411;-60
2021/09/16 09:47:42;;;;;;;5.13;4.65;;;;;;;;;;5129550;27;24437;-60
2021/09/16 09:50:27;;;;;;;3.20;3.00;;;;;;;;;;5129682;27;24726;-60
2021/09/16 09:52:53;;;;;;;4.03;3.72;;;;;;;;;;5128908;27;24765;-60
2021/09/16 09:55:19;;;;;;;3.97;3.67;;;;;;;;;;5129387;27;24480;-60
2021/09/16 09:57:44;;;;;;;4.78;4.38;;;;;;;;;;5129547;27;24484;-60
2021/09/16 10:00:15;;;;;;;4.27;3.97;;;;;;;;;;5129518;27;24802;-60
2021/09/16 10:02:52;;;;;;;3.60;3.30;;;;;;;;;;5129650;27;24385;-60
2021/09/16 10:05:27;;;;;;;3.20;3.00;;;;;;;;;;5129374;27;24436;-60
2021/09/16 10:07:54;;;;;;;3.30;3.00;;;;;;;;;;5128839;27;24788;-60
2021/09/16 10:10:19;;;;;;;3.10;2.80;;;;;;;;;;5129509;27;24409;-60
2021/09/16 10:12:46;;;;;;;3.00;2.80;;;;;;;;;;5129565;27;24442;-60
2021/09/16 10:15:12;;;;;;;3.00;2.70;;;;;;;;;;5129426;27;24397;-60
2021/09/16 10:17:38;;;;;;;3.28;3.03;;;;;;;;;;5128868;27;24409;-60
2021/09/16 10:20:04;;;;;;;2.90;2.70;;;;;;;;;;5128643;27;24442;-60
2021/09/16 10:22:29;;;;;;;2.93;2.73;;;;;;;;;;5129373;27;24517;-60
2021/09/16 10:24:55;;;;;;;2.80;2.60;;;;;;;;;;5128939;27;24927;-61
2021/09/16 10:27:29;;;;;;;3.30;3.10;;;;;;;;;;5128500;27;24405;-60
2021/09/16 10:29:54;;;;;;;3.63;3.28;;;;;;;;;;5128725;27;24385;-60
2021/09/16 10:32:19;;;;;;;3.33;3.13;;;;;;;;;;5128719;27;24562;-60
2021/09/16 10:34:45;;;;;;;3.20;3.00;;;;;;;;;;5124356;27;24611;-60
2021/09/16 10:37:12;;;;;;;3.00;2.80;;;;;;;;;;5114766;27;24438;-60
2021/09/16 10:39:38;;;;;;;3.90;3.50;;;;;;;;;;5128657;27;24401;-60
2021/09/16 10:42:03;;;;;;;3.80;3.50;;;;;;;;;;5128037;27;24432;-60
2021/09/16 10:44:28;;;;;;;3.70;3.50;;;;;;;;;;5128898;27;24432;-60
2021/09/16 10:47:00;;;;;;;4.03;3.63;;;;;;;;;;5128237;27;24412;-59
2021/09/16 10:49:26;;;;;;;3.80;3.50;;;;;;;;;;5127889;27;24959;-59
2021/09/16 10:52:09;;;;;;;4.60;4.20;;;;;;;;;;5128066;27;24562;-60
2021/09/16 10:54:38;;;;;;;2.90;2.70;;;;;;;;;;5128791;27;24477;-60
2021/09/16 10:57:09;;;;;;;5.82;4.20;;;;;;;;;;5128222;27;24486;-59
2021/09/16 10:59:46;;;;;;;5.80;3.70;;;;;;;;;;5127963;27;24425;-60
2021/09/16 11:02:11;;;;;;;3.97;3.67;;;;;;;;;;5128361;27;25165;-60
2021/09/16 11:05:05;;;;;;;3.40;3.10;;;;;;;;;;5128451;27;24516;-60
2021/09/16 11:07:33;;;;;;;3.20;2.90;;;;;;;;;;5128450;27;24476;-60
2021/09/16 11:10:14;;;;;;;3.05;2.85;;;;;;;;;;5127317;27;24458;-59
2021/09/16 11:12:42;;;;;;;3.20;3.00;;;;;;;;;;5128306;27;24389;-60
2021/09/16 11:15:10;;;;;;;3.30;3.10;;;;;;;;;;5128172;27;24401;-60
2021/09/16 11:17:35;;;;;;;3.47;3.10;;;;;;;;;;5128123;27;24810;-61
2021/09/16 11:20:00;;;;;;;3.60;3.30;;;;;;;;;;5127261;27;24937;-60
2021/09/16 11:22:25;;;;;;;3.07;2.87;;;;;;;;;;5127785;27;24450;-60
2021/09/16 11:24:54;;;;;;;3.28;2.88;;;;;;;;;;5127828;27;24794;-60
2021/09/16 11:27:45;;;;;;;3.05;2.85;;;;;;;;;;5128126;27;24430;-60
2021/09/16 11:30:15;;;;;;;3.17;2.97;;;;;;;;;;5123986;27;25169;-60
2021/09/16 11:32:40;;;;;;;3.90;3.60;;;;;;;;;;5127296;27;24619;-60
2021/09/16 11:35:13;;;;;;;3.10;2.80;;;;;;;;;;5108637;27;24642;-60
2021/09/16 11:37:41;;;;;;;3.45;3.25;;;;;;;;;;5106920;28;24504;-60
2021/09/16 11:40:08;;;;;;;4.50;4.10;;;;;;;;;;5106675;28;24390;-60
2021/09/16 11:42:34;;;;;;;3.72;3.42;;;;;;;;;;5126754;27;24412;-60
2021/09/16 11:45:00;;;;;;;3.83;3.53;;;;;;;;;;5127219;27;24440;-60
2021/09/16 11:47:25;;;;;;;3.00;2.80;;;;;;;;;;5127675;27;24389;-60
2021/09/16 11:49:51;;;;;;;2.65;2.50;;;;;;;;;;5126777;27;24468;-60
2021/09/16 11:52:19;;;;;;;3.47;3.17;;;;;;;;;;5127148;27;24998;-60
2021/09/16 11:55:04;;;;;;;4.50;4.10;;;;;;;;;;5126614;27;24892;-60
2021/09/16 11:57:29;;;;;;;4.03;3.72;;;;;;;;;;5127068;27;25183;-60
2021/09/16 11:59:54;;;;;;;5.80;5.30;;;;;;;;;;5127018;27;24408;-60
2021/09/16 12:02:19;;;;;;;4.77;4.37;;;;;;;;;;5127387;27;24412;-60
2021/09/16 12:04:45;;;;;;;4.00;3.70;;;;;;;;;;5127185;27;25007;-60
2021/09/16 12:07:10;;;;;;;5.30;4.90;;;;;;;;;;5126903;27;24532;-60
2021/09/16 12:09:36;;;;;;;5.18;4.78;;;;;;;;;;5126883;27;24706;-60
2021/09/16 12:12:01;;;;;;;5.40;5.00;;;;;;;;;;5127423;27;24400;-60
2021/09/16 12:14:26;;;;;;;4.40;4.10;;;;;;;;;;5127013;27;24512;-60
2021/09/16 12:17:00;;;;;;;5.40;5.00;;;;;;;;;;5126881;27;24424;-60
2021/09/16 12:19:25;;;;;;;4.70;4.30;;;;;;;;;;5126457;27;24446;-60
2021/09/16 12:21:57;;;;;;;4.73;4.33;;;;;;;;;;5120894;27;24479;-61
2021/09/16 12:24:26;;;;;;;5.22;4.80;;;;;;;;;;5124565;27;24442;-60
2021/09/16 12:26:52;;;;;;;4.70;4.40;;;;;;;;;;5126450;27;24472;-60
2021/09/16 12:29:25;;;;;;;5.40;5.00;;;;;;;;;;5126840;27;24804;-60
2021/09/16 12:31:57;;;;;;;4.70;4.40;;;;;;;;;;5126144;27;25008;-60
2021/09/16 12:34:22;;;;;;;6.32;5.72;;;;;;;;;;5126208;27;24470;-60
2021/09/16 12:37:08;;;;;;;6.60;6.00;;;;;;;;;;5126186;27;21306;-61
2021/09/16 12:39:43;;;;;;;7.63;6.93;;;;;;;;;;5126403;27;24385;-61
2021/09/16 12:42:09;;;;;;;5.40;5.00;;;;;;;;;;5126544;27;25040;-60
2021/09/16 12:44:36;;;;;;;4.93;4.53;;;;;;;;;;5124763;28;24413;-61
2021/09/16 12:47:14;;;;;;;4.80;4.50;;;;;;;;;;5126715;28;24481;-60
2021/09/16 12:49:47;;;;;;;4.60;4.30;;;;;;;;;;5126261;28;24389;-62
2021/09/16 12:52:22;;;;;;;5.55;5.05;;;;;;;;;;5126607;28;24408;-59
2021/09/16 12:54:50;;;;;;;5.40;5.00;;;;;;;;;;5125675;28;24905;-60
2021/09/16 12:57:16;;;;;;;5.30;4.90;;;;;;;;;;5126371;28;24421;-60
2021/09/16 12:59:42;;;;;;;5.33;4.93;;;;;;;;;;5126388;28;24408;-60
2021/09/16 13:02:13;;;;;;;4.90;4.60;;;;;;;;;;5126723;28;24409;-60
2021/09/16 13:05:03;;;;;;;5.28;4.78;;;;;;;;;;5127827;27;24990;-60
2021/09/16 13:07:33;;;;;;;5.60;5.20;;;;;;;;;;5130707;27;24555;-60
2021/09/16 13:10:17;;;;;;;5.30;4.90;;;;;;;;;;5130093;27;24928;-60
2021/09/16 13:12:44;;;;;;;5.00;4.70;;;;;;;;;;5130685;27;24728;-60
2021/09/16 13:15:10;;;;;;;5.28;4.88;;;;;;;;;;5128003;27;24477;-57
2021/09/16 13:17:35;;;;;;;4.70;4.40;;;;;;;;;;5128605;27;24506;-60
2021/09/16 13:20:00;;;;;;;5.13;4.73;;;;;;;;;;5130024;27;24441;-59
2021/09/16 13:22:26;;;;;;;4.80;4.50;;;;;;;;;;5129719;27;24397;-59
2021/09/16 13:24:54;;;;;;;5.20;4.90;;;;;;;;;;5130475;27;25152;-59
2021/09/16 13:27:19;;;;;;;5.20;4.90;;;;;;;;;;5130312;27;24411;-59
2021/09/16 13:29:44;;;;;;;5.73;5.33;;;;;;;;;;5130407;27;24545;-59
2021/09/16 13:32:09;;;;;;;5.97;5.57;;;;;;;;;;5129412;27;24417;-59
2021/09/16 13:34:34;;;;;;;5.43;5.10;;;;;;;;;;5127725;27;24443;-60
2021/09/16 13:36:59;;;;;;;5.88;5.47;;;;;;;;;;5128007;27;24424;-59
2021/09/16 13:39:25;;;;;;;5.17;4.87;;;;;;;;;;5130068;27;24408;-59
2021/09/16 13:41:50;;;;;;;7.63;7.03;;;;;;;;;;5129953;27;24421;-59
2021/09/16 13:44:18;;;;;;;11.00;10.10;;;;;;;;;;5129765;27;24416;-59
2021/09/16 13:46:45;;;;;;;8.07;7.37;;;;;;;;;;5129259;27;24413;-59
2021/09/16 13:49:10;;;;;;;7.35;6.75;;;;;;;;;;5123931;27;24414;-59
2021/09/16 13:51:35;;;;;;;9.20;8.50;;;;;;;;;;5130212;27;24416;-59
2021/09/16 13:54:01;;;;;;;9.43;8.73;;;;;;;;;;5127167;27;25390;-59
2021/09/16 13:56:26;;;;;;;9.50;8.80;;;;;;;;;;5124001;27;24413;-59
2021/09/16 13:58:52;;;;;;;13.00;12.00;;;;;;;;;;5125400;27;24470;-59
2021/09/16 14:01:17;;;;;;;10.63;9.77;;;;;;;;;;5126584;27;24533;-59
2021/09/16 14:03:42;;;;;;;8.70;8.00;;;;;;;;;;5125809;27;25023;-61
2021/09/16 14:06:07;;;;;;;11.90;10.90;;;;;;;;;;5125527;27;24421;-59
2021/09/16 14:08:32;;;;;;;13.03;11.93;;;;;;;;;;5125875;27;24474;-59
2021/09/16 14:10:58;;;;;;;13.80;12.60;;;;;;;;;;5126261;27;24417;-59
2021/09/16 14:13:23;;;;;;;15.30;14.10;;;;;;;;;;5125789;27;24490;-59
2021/09/16 14:15:48;;;;;;;14.03;12.93;;;;;;;;;;5124441;27;24420;-58
2021/09/16 14:18:13;;;;;;;15.50;14.20;;;;;;;;;;5123965;27;24429;-59
2021/09/16 14:20:38;;;;;;;12.93;11.93;;;;;;;;;;5125804;27;24405;-59
2021/09/16 14:23:06;;;;;;;14.37;13.13;;;;;;;;;;5126407;27;25012;-59
2021/09/16 14:25:31;;;;;;;17.77;16.25;;;;;;;;;;5125412;27;24413;-59
2021/09/16 14:27:56;;;;;;;15.65;14.35;;;;;;;;;;5124954;27;24784;-59
2021/09/16 14:30:21;;;;;;;20.23;18.63;;;;;;;;;;5110964;27;24489;-59